sensor_id;sensor_type;location;lat;lon;timestamp;temperature;humidity
816;DHT22;25928;51.062;13.752;2023-02-17T00:00:31;8.30;1.00
816;DHT22;25928;51.062;13.752;2023-02-17T00:02:58;8.40;1.00
816;DHT22;25928;51.062;13.752;2023-02-17T00:05:25;8.50;1.00
816;DHT22;25928;51.062;13.752;2023-02-17T00:07:51;8.50;1.00
816;DHT22;25928;51.062;13.752;2023-02-17T00:10:17;8.60;1.00
816;DHT22;25928;51.062;13.752;2023-02-17T00:12:43;8.60;1.00
816;DHT22;25928;51.062;13.752;2023-02-17T00:15:08;8.70;1.00
816;DHT22;25928;51.062;13.752;2023-02-17T00:17:34;8.70;1.00
816;DHT22;25928;51.062;13.752;2023-02-17T00:20:00;8.80;1.00
816;DHT22;25928;51.062;13.752;2023-02-17T00:22:26;8.80;1.00
816;DHT22;25928;51.062;13.752;2023-02-17T00:24:51;8.90;1.00
816;DHT22;25928;51.062;13.752;2023-02-17T00:27:17;8.90;1.00
816;DHT22;25928;51.062;13.752;2023-02-17T00:29:44;8.90;1.00
816;DHT22;25928;51.062;13.752;2023-02-17T00:32:10;9.10;1.00
816;DHT22;25928;51.062;13.752;2023-02-17T00:34:36;9.10;1.00
816;DHT22;25928;51.062;13.752;2023-02-17T00:37:02;9.10;1.00
816;DHT22;25928;51.062;13.752;2023-02-17T00:39:28;9.10;1.00
816;DHT22;25928;51.062;13.752;2023-02-17T00:41:53;9.20;1.00
816;DHT22;25928;51.062;13.752;2023-02-17T00:44:22;9.30;1.00
816;DHT22;25928;51.062;13.752;2023-02-17T00:46:48;9.20;1.00
816;DHT22;25928;51.062;13.752;2023-02-17T00:49:22;9.20;1.00
816;DHT22;25928;51.062;13.752;2023-02-17T00:51:49;9.20;1.00
816;DHT22;25928;51.062;13.752;2023-02-17T00:54:16;9.30;1.00
816;DHT22;25928;51.062;13.752;2023-02-17T00:56:42;9.20;1.00
816;DHT22;25928;51.062;13.752;2023-02-17T00:59:08;9.20;1.00
816;DHT22;25928;51.062;13.752;2023-02-17T01:01:34;9.20;1.00
816;DHT22;25928;51.062;13.752;2023-02-17T01:04:01;9.30;1.00
816;DHT22;25928;51.062;13.752;2023-02-17T01:06:31;9.30;1.00
816;DHT22;25928;51.062;13.752;2023-02-17T01:08:57;9.40;1.00
816;DHT22;25928;51.062;13.752;2023-02-17T01:11:25;9.40;1.00
816;DHT22;25928;51.062;13.752;2023-02-17T01:13:52;9.60;1.00
816;DHT22;25928;51.062;13.752;2023-02-17T01:16:24;9.60;1.00
816;DHT22;25928;51.062;13.752;2023-02-17T01:18:50;9.60;1.00
816;DHT22;25928;51.062;13.752;2023-02-17T01:21:24;9.80;1.00
816;DHT22;25928;51.062;13.752;2023-02-17T01:23:52;9.80;1.00
816;DHT22;25928;51.062;13.752;2023-02-17T01:26:20;9.80;1.00
816;DHT22;25928;51.062;13.752;2023-02-17T01:28:46;9.80;1.00
816;DHT22;25928;51.062;13.752;2023-02-17T01:31:12;9.70;1.00
816;DHT22;25928;51.062;13.752;2023-02-17T01:33:39;9.60;1.00
816;DHT22;25928;51.062;13.752;2023-02-17T01:36:06;9.60;1.00
816;DHT22;25928;51.062;13.752;2023-02-17T01:38:32;9.50;1.00
816;DHT22;25928;51.062;13.752;2023-02-17T01:40:58;9.50;1.00
816;DHT22;25928;51.062;13.752;2023-02-17T01:43:24;9.40;1.00
816;DHT22;25928;51.062;13.752;2023-02-17T01:45:52;9.40;1.00
816;DHT22;25928;51.062;13.752;2023-02-17T01:48:41;9.30;1.00
816;DHT22;25928;51.062;13.752;2023-02-17T01:51:12;9.30;1.00
816;DHT22;25928;51.062;13.752;2023-02-17T01:53:44;9.30;1.00
816;DHT22;25928;51.062;13.752;2023-02-17T01:56:13;9.40;1.00
816;DHT22;25928;51.062;13.752;2023-02-17T01:58:42;9.50;1.00
816;DHT22;25928;51.062;13.752;2023-02-17T02:01:10;9.40;1.00
816;DHT22;25928;51.062;13.752;2023-02-17T02:03:37;9.40;1.00
816;DHT22;25928;51.062;13.752;2023-02-17T02:06:07;9.30;1.00
816;DHT22;25928;51.062;13.752;2023-02-17T02:08:45;9.30;1.00
816;DHT22;25928;51.062;13.752;2023-02-17T02:11:13;9.20;1.00
816;DHT22;25928;51.062;13.752;2023-02-17T02:13:38;9.20;1.00
816;DHT22;25928;51.062;13.752;2023-02-17T02:16:19;9.30;1.00
816;DHT22;25928;51.062;13.752;2023-02-17T02:18:57;9.20;1.00
816;DHT22;25928;51.062;13.752;2023-02-17T02:24:30;9.20;1.00
816;DHT22;25928;51.062;13.752;2023-02-17T02:29:50;9.20;1.00
816;DHT22;25928;51.062;13.752;2023-02-17T02:40:08;9.30;1.00
816;DHT22;25928;51.062;13.752;2023-02-17T02:42:35;9.20;1.00
816;DHT22;25928;51.062;13.752;2023-02-17T02:45:04;9.30;1.00
816;DHT22;25928;51.062;13.752;2023-02-17T02:47:51;9.20;1.00
816;DHT22;25928;51.062;13.752;2023-02-17T03:05:08;10.40;1.00
816;DHT22;25928;51.062;13.752;2023-02-17T03:08:03;10.60;1.00
816;DHT22;25928;51.062;13.752;2023-02-17T03:10:29;10.90;1.00
816;DHT22;25928;51.062;13.752;2023-02-17T03:12:56;11.10;1.00
816;DHT22;25928;51.062;13.752;2023-02-17T03:15:28;11.10;1.00
816;DHT22;25928;51.062;13.752;2023-02-17T03:17:58;11.10;1.00
816;DHT22;25928;51.062;13.752;2023-02-17T03:20:32;11.00;1.00
816;DHT22;25928;51.062;13.752;2023-02-17T03:23:00;11.00;1.00
816;DHT22;25928;51.062;13.752;2023-02-17T03:25:25;11.00;1.00
816;DHT22;25928;51.062;13.752;2023-02-17T03:27:51;11.10;1.00
816;DHT22;25928;51.062;13.752;2023-02-17T03:30:16;11.20;1.00
816;DHT22;25928;51.062;13.752;2023-02-17T03:32:43;11.10;1.00
816;DHT22;25928;51.062;13.752;2023-02-17T03:35:08;11.20;1.00
816;DHT22;25928;51.062;13.752;2023-02-17T03:37:34;11.20;1.00
816;DHT22;25928;51.062;13.752;2023-02-17T03:40:00;11.20;1.00
816;DHT22;25928;51.062;13.752;2023-02-17T03:42:26;11.20;1.00
816;DHT22;25928;51.062;13.752;2023-02-17T03:44:51;11.20;1.00
816;DHT22;25928;51.062;13.752;2023-02-17T03:47:17;11.20;1.00
816;DHT22;25928;51.062;13.752;2023-02-17T03:49:42;11.20;1.00
816;DHT22;25928;51.062;13.752;2023-02-17T03:52:09;11.30;1.00
816;DHT22;25928;51.062;13.752;2023-02-17T03:54:34;11.30;1.00
816;DHT22;25928;51.062;13.752;2023-02-17T03:57:00;11.20;1.00
816;DHT22;25928;51.062;13.752;2023-02-17T03:59:26;11.20;1.00
816;DHT22;25928;51.062;13.752;2023-02-17T04:01:52;11.30;1.00
816;DHT22;25928;51.062;13.752;2023-02-17T04:04:18;11.10;1.00
816;DHT22;25928;51.062;13.752;2023-02-17T04:06:43;11.10;1.00
816;DHT22;25928;51.062;13.752;2023-02-17T04:09:09;11.00;1.00
816;DHT22;25928;51.062;13.752;2023-02-17T04:11:34;11.20;1.00
816;DHT22;25928;51.062;13.752;2023-02-17T04:14:00;11.30;1.00
816;DHT22;25928;51.062;13.752;2023-02-17T04:16:26;11.10;1.00
816;DHT22;25928;51.062;13.752;2023-02-17T04:18:51;11.00;1.00
816;DHT22;25928;51.062;13.752;2023-02-17T04:21:17;10.90;1.00
816;DHT22;25928;51.062;13.752;2023-02-17T04:23:43;10.90;1.00
816;DHT22;25928;51.062;13.752;2023-02-17T04:26:09;10.90;1.00
816;DHT22;25928;51.062;13.752;2023-02-17T04:28:39;10.70;1.00
816;DHT22;25928;51.062;13.752;2023-02-17T04:31:05;10.70;1.00
816;DHT22;25928;51.062;13.752;2023-02-17T04:33:31;10.60;1.00
816;DHT22;25928;51.062;13.752;2023-02-17T04:35:56;10.60;1.00
816;DHT22;25928;51.062;13.752;2023-02-17T04:38:33;10.50;1.00
816;DHT22;25928;51.062;13.752;2023-02-17T04:41:00;10.60;1.00
816;DHT22;25928;51.062;13.752;2023-02-17T04:43:26;10.70;1.00
816;DHT22;25928;51.062;13.752;2023-02-17T04:45:53;10.70;1.00
816;DHT22;25928;51.062;13.752;2023-02-17T04:48:19;10.70;1.00
816;DHT22;25928;51.062;13.752;2023-02-17T04:50:45;10.80;1.00
816;DHT22;25928;51.062;13.752;2023-02-17T04:53:11;10.90;1.00
816;DHT22;25928;51.062;13.752;2023-02-17T04:55:38;10.80;1.00
816;DHT22;25928;51.062;13.752;2023-02-17T04:58:04;10.80;1.00
816;DHT22;25928;51.062;13.752;2023-02-17T05:00:30;10.80;1.00
816;DHT22;25928;51.062;13.752;2023-02-17T05:02:55;10.70;1.00
816;DHT22;25928;51.062;13.752;2023-02-17T05:05:21;10.80;1.00
816;DHT22;25928;51.062;13.752;2023-02-17T05:07:47;10.80;1.00
816;DHT22;25928;51.062;13.752;2023-02-17T05:10:14;10.80;1.00
816;DHT22;25928;51.062;13.752;2023-02-17T05:12:40;10.80;1.00
816;DHT22;25928;51.062;13.752;2023-02-17T05:15:06;10.80;1.00
816;DHT22;25928;51.062;13.752;2023-02-17T05:17:32;10.90;1.00
816;DHT22;25928;51.062;13.752;2023-02-17T05:19:58;10.90;1.00
816;DHT22;25928;51.062;13.752;2023-02-17T05:22:23;10.90;1.00
816;DHT22;25928;51.062;13.752;2023-02-17T05:24:49;11.00;1.00
816;DHT22;25928;51.062;13.752;2023-02-17T05:27:15;10.90;1.00
816;DHT22;25928;51.062;13.752;2023-02-17T05:29:40;10.90;1.00
816;DHT22;25928;51.062;13.752;2023-02-17T05:32:06;11.00;1.00
816;DHT22;25928;51.062;13.752;2023-02-17T05:34:32;10.90;1.00
816;DHT22;25928;51.062;13.752;2023-02-17T05:36:57;11.00;1.00
816;DHT22;25928;51.062;13.752;2023-02-17T05:39:23;11.00;1.00
816;DHT22;25928;51.062;13.752;2023-02-17T05:41:49;11.00;1.00
816;DHT22;25928;51.062;13.752;2023-02-17T05:44:14;11.00;1.00
816;DHT22;25928;51.062;13.752;2023-02-17T05:46:40;11.00;1.00
816;DHT22;25928;51.062;13.752;2023-02-17T05:49:06;11.00;1.00
816;DHT22;25928;51.062;13.752;2023-02-17T05:51:31;11.00;1.00
816;DHT22;25928;51.062;13.752;2023-02-17T05:53:57;11.00;1.00
816;DHT22;25928;51.062;13.752;2023-02-17T05:56:23;11.00;1.00
816;DHT22;25928;51.062;13.752;2023-02-17T05:58:48;11.00;1.00
816;DHT22;25928;51.062;13.752;2023-02-17T06:01:14;11.10;1.00
816;DHT22;25928;51.062;13.752;2023-02-17T06:03:39;11.10;1.00
816;DHT22;25928;51.062;13.752;2023-02-17T06:06:05;11.10;1.00
816;DHT22;25928;51.062;13.752;2023-02-17T06:08:32;11.10;1.00
816;DHT22;25928;51.062;13.752;2023-02-17T06:10:57;11.10;1.00
816;DHT22;25928;51.062;13.752;2023-02-17T06:13:23;11.10;1.00
816;DHT22;25928;51.062;13.752;2023-02-17T06:15:48;11.10;1.00
816;DHT22;25928;51.062;13.752;2023-02-17T06:18:14;11.10;1.00
816;DHT22;25928;51.062;13.752;2023-02-17T06:20:40;11.20;1.00
816;DHT22;25928;51.062;13.752;2023-02-17T06:23:05;11.20;1.00
816;DHT22;25928;51.062;13.752;2023-02-17T06:25:31;11.10;1.00
816;DHT22;25928;51.062;13.752;2023-02-17T06:27:57;11.10;1.00
816;DHT22;25928;51.062;13.752;2023-02-17T06:30:22;11.20;1.00
816;DHT22;25928;51.062;13.752;2023-02-17T06:32:50;11.20;1.00
816;DHT22;25928;51.062;13.752;2023-02-17T06:35:16;11.30;1.00
816;DHT22;25928;51.062;13.752;2023-02-17T06:37:41;11.10;1.00
816;DHT22;25928;51.062;13.752;2023-02-17T06:40:08;11.20;1.00
816;DHT22;25928;51.062;13.752;2023-02-17T06:42:33;11.20;1.00
816;DHT22;25928;51.062;13.752;2023-02-17T06:44:59;11.20;1.00
816;DHT22;25928;51.062;13.752;2023-02-17T06:47:27;11.30;1.00
816;DHT22;25928;51.062;13.752;2023-02-17T06:49:53;11.30;1.00
816;DHT22;25928;51.062;13.752;2023-02-17T06:52:18;11.20;1.00
816;DHT22;25928;51.062;13.752;2023-02-17T06:54:44;11.30;1.00
816;DHT22;25928;51.062;13.752;2023-02-17T06:57:11;11.30;1.00
816;DHT22;25928;51.062;13.752;2023-02-17T06:59:37;11.30;1.00
816;DHT22;25928;51.062;13.752;2023-02-17T07:02:03;11.40;1.00
816;DHT22;25928;51.062;13.752;2023-02-17T07:04:28;11.40;1.00
816;DHT22;25928;51.062;13.752;2023-02-17T07:06:54;11.40;1.00
816;DHT22;25928;51.062;13.752;2023-02-17T07:09:19;11.50;1.00
816;DHT22;25928;51.062;13.752;2023-02-17T07:11:45;11.50;1.00
816;DHT22;25928;51.062;13.752;2023-02-17T07:14:11;11.40;1.00
816;DHT22;25928;51.062;13.752;2023-02-17T07:16:36;11.40;1.00
816;DHT22;25928;51.062;13.752;2023-02-17T07:19:03;11.40;1.00
816;DHT22;25928;51.062;13.752;2023-02-17T07:21:29;11.40;1.00
816;DHT22;25928;51.062;13.752;2023-02-17T07:23:54;11.40;1.00
816;DHT22;25928;51.062;13.752;2023-02-17T07:26:20;11.50;1.00
816;DHT22;25928;51.062;13.752;2023-02-17T07:28:46;11.50;1.00
816;DHT22;25928;51.062;13.752;2023-02-17T07:31:14;11.40;1.00
816;DHT22;25928;51.062;13.752;2023-02-17T07:33:41;11.30;1.00
816;DHT22;25928;51.062;13.752;2023-02-17T07:36:10;11.30;1.00
816;DHT22;25928;51.062;13.752;2023-02-17T07:38:36;11.40;1.00
816;DHT22;25928;51.062;13.752;2023-02-17T07:41:07;11.50;1.00
816;DHT22;25928;51.062;13.752;2023-02-17T07:43:33;11.50;1.00
816;DHT22;25928;51.062;13.752;2023-02-17T07:45:59;11.70;1.00
816;DHT22;25928;51.062;13.752;2023-02-17T07:48:24;11.70;1.00
816;DHT22;25928;51.062;13.752;2023-02-17T07:50:50;11.70;1.00
816;DHT22;25928;51.062;13.752;2023-02-17T07:53:15;11.60;1.00
816;DHT22;25928;51.062;13.752;2023-02-17T07:55:41;11.60;1.00
816;DHT22;25928;51.062;13.752;2023-02-17T07:58:07;11.70;1.00
816;DHT22;25928;51.062;13.752;2023-02-17T08:00:32;11.80;1.00
816;DHT22;25928;51.062;13.752;2023-02-17T08:02:58;11.80;1.00
816;DHT22;25928;51.062;13.752;2023-02-17T08:05:24;11.80;1.00
816;DHT22;25928;51.062;13.752;2023-02-17T08:07:50;11.90;1.00
816;DHT22;25928;51.062;13.752;2023-02-17T08:10:39;11.90;1.00
816;DHT22;25928;51.062;13.752;2023-02-17T08:13:24;11.90;1.00
816;DHT22;25928;51.062;13.752;2023-02-17T08:15:50;11.80;1.00
816;DHT22;25928;51.062;13.752;2023-02-17T08:18:16;11.80;1.00
816;DHT22;25928;51.062;13.752;2023-02-17T08:20:41;11.80;1.00
816;DHT22;25928;51.062;13.752;2023-02-17T08:23:07;11.70;1.00
816;DHT22;25928;51.062;13.752;2023-02-17T08:25:34;11.70;1.00
816;DHT22;25928;51.062;13.752;2023-02-17T08:28:00;11.80;1.00
816;DHT22;25928;51.062;13.752;2023-02-17T08:30:27;11.90;1.00
816;DHT22;25928;51.062;13.752;2023-02-17T08:32:52;11.90;1.00
816;DHT22;25928;51.062;13.752;2023-02-17T08:35:18;11.80;1.00
816;DHT22;25928;51.062;13.752;2023-02-17T08:37:47;11.80;1.00
816;DHT22;25928;51.062;13.752;2023-02-17T08:40:13;11.80;1.00
816;DHT22;25928;51.062;13.752;2023-02-17T08:42:39;11.70;1.00
816;DHT22;25928;51.062;13.752;2023-02-17T08:45:05;10.50;1.00
816;DHT22;25928;51.062;13.752;2023-02-17T08:47:31;11.80;1.00
816;DHT22;25928;51.062;13.752;2023-02-17T08:49:56;11.90;1.00
816;DHT22;25928;51.062;13.752;2023-02-17T08:52:22;11.90;1.00
816;DHT22;25928;51.062;13.752;2023-02-17T08:54:47;11.80;1.00
816;DHT22;25928;51.062;13.752;2023-02-17T08:57:13;11.80;1.00
816;DHT22;25928;51.062;13.752;2023-02-17T08:59:39;11.90;1.00
816;DHT22;25928;51.062;13.752;2023-02-17T09:02:04;12.00;1.00
816;DHT22;25928;51.062;13.752;2023-02-17T09:04:30;12.10;1.00
816;DHT22;25928;51.062;13.752;2023-02-17T09:06:56;12.10;1.00
816;DHT22;25928;51.062;13.752;2023-02-17T09:09:23;12.10;1.00
816;DHT22;25928;51.062;13.752;2023-02-17T09:11:54;12.10;1.00
816;DHT22;25928;51.062;13.752;2023-02-17T09:14:21;12.20;1.00
816;DHT22;25928;51.062;13.752;2023-02-17T09:16:50;12.20;1.00
816;DHT22;25928;51.062;13.752;2023-02-17T09:19:16;12.20;1.00
816;DHT22;25928;51.062;13.752;2023-02-17T09:21:42;12.20;1.00
816;DHT22;25928;51.062;13.752;2023-02-17T09:24:08;12.20;1.00
816;DHT22;25928;51.062;13.752;2023-02-17T09:26:34;12.40;1.00
816;DHT22;25928;51.062;13.752;2023-02-17T09:29:01;12.50;1.00
816;DHT22;25928;51.062;13.752;2023-02-17T09:31:28;12.50;1.00
816;DHT22;25928;51.062;13.752;2023-02-17T09:33:54;12.60;1.00
816;DHT22;25928;51.062;13.752;2023-02-17T09:36:22;12.60;1.00
816;DHT22;25928;51.062;13.752;2023-02-17T09:38:49;12.60;1.00
816;DHT22;25928;51.062;13.752;2023-02-17T09:41:35;12.50;1.00
816;DHT22;25928;51.062;13.752;2023-02-17T09:44:05;12.60;1.00
816;DHT22;25928;51.062;13.752;2023-02-17T09:46:32;12.80;1.00
816;DHT22;25928;51.062;13.752;2023-02-17T09:49:06;12.80;1.00
816;DHT22;25928;51.062;13.752;2023-02-17T09:51:54;12.90;1.00
816;DHT22;25928;51.062;13.752;2023-02-17T09:54:35;13.00;1.00
816;DHT22;25928;51.062;13.752;2023-02-17T09:57:03;13.10;1.00
816;DHT22;25928;51.062;13.752;2023-02-17T09:59:52;13.20;1.00
816;DHT22;25928;51.062;13.752;2023-02-17T10:02:35;13.20;1.00
816;DHT22;25928;51.062;13.752;2023-02-17T10:05:07;13.40;1.00
816;DHT22;25928;51.062;13.752;2023-02-17T10:07:46;13.30;1.00
816;DHT22;25928;51.062;13.752;2023-02-17T10:10:19;13.30;1.00
816;DHT22;25928;51.062;13.752;2023-02-17T10:12:50;13.20;1.00
816;DHT22;25928;51.062;13.752;2023-02-17T10:15:23;13.10;1.00
816;DHT22;25928;51.062;13.752;2023-02-17T10:18:15;13.10;1.00
816;DHT22;25928;51.062;13.752;2023-02-17T10:20:46;13.10;1.00
816;DHT22;25928;51.062;13.752;2023-02-17T10:23:25;13.00;1.00
816;DHT22;25928;51.062;13.752;2023-02-17T10:37:00;13.20;1.00
816;DHT22;25928;51.062;13.752;2023-02-17T10:41:58;13.50;1.00
816;DHT22;25928;51.062;13.752;2023-02-17T10:44:24;13.70;1.00
816;DHT22;25928;51.062;13.752;2023-02-17T10:46:52;13.80;1.00
816;DHT22;25928;51.062;13.752;2023-02-17T10:49:29;14.00;1.00
816;DHT22;25928;51.062;13.752;2023-02-17T10:52:10;14.10;1.00
816;DHT22;25928;51.062;13.752;2023-02-17T10:54:56;14.20;1.00
816;DHT22;25928;51.062;13.752;2023-02-17T10:57:28;14.20;1.00
816;DHT22;25928;51.062;13.752;2023-02-17T10:59:57;14.20;1.00
816;DHT22;25928;51.062;13.752;2023-02-17T11:02:39;14.10;1.00
816;DHT22;25928;51.062;13.752;2023-02-17T11:05:06;14.00;1.00
816;DHT22;25928;51.062;13.752;2023-02-17T11:07:35;13.80;1.00
816;DHT22;25928;51.062;13.752;2023-02-17T11:10:18;13.80;1.00
816;DHT22;25928;51.062;13.752;2023-02-17T11:12:44;13.70;1.00
816;DHT22;25928;51.062;13.752;2023-02-17T11:15:18;13.90;1.00
816;DHT22;25928;51.062;13.752;2023-02-17T11:17:45;13.70;1.00
816;DHT22;25928;51.062;13.752;2023-02-17T11:22:45;13.70;1.00
816;DHT22;25928;51.062;13.752;2023-02-17T11:25:29;13.60;1.00
816;DHT22;25928;51.062;13.752;2023-02-17T11:27:58;13.50;1.00
816;DHT22;25928;51.062;13.752;2023-02-17T11:30:26;13.50;1.00
816;DHT22;25928;51.062;13.752;2023-02-17T11:32:52;13.50;1.00
816;DHT22;25928;51.062;13.752;2023-02-17T11:36:04;13.40;1.00
816;DHT22;25928;51.062;13.752;2023-02-17T11:40:36;13.60;1.00
816;DHT22;25928;51.062;13.752;2023-02-17T11:43:03;13.60;1.00
816;DHT22;25928;51.062;13.752;2023-02-17T11:46:00;13.60;1.00
816;DHT22;25928;51.062;13.752;2023-02-17T11:51:19;13.50;1.00
816;DHT22;25928;51.062;13.752;2023-02-17T11:54:16;13.50;1.00
816;DHT22;25928;51.062;13.752;2023-02-17T12:02:43;13.80;1.00
816;DHT22;25928;51.062;13.752;2023-02-17T12:16:47;13.80;1.00
816;DHT22;25928;51.062;13.752;2023-02-17T12:22:31;13.90;1.00
816;DHT22;25928;51.062;13.752;2023-02-17T12:36:06;14.20;1.00
816;DHT22;25928;51.062;13.752;2023-02-17T12:38:38;14.30;1.00
816;DHT22;25928;51.062;13.752;2023-02-17T12:43:43;14.50;1.00
816;DHT22;25928;51.062;13.752;2023-02-17T12:46:14;14.40;1.00
816;DHT22;25928;51.062;13.752;2023-02-17T12:57:07;14.30;1.00
816;DHT22;25928;51.062;13.752;2023-02-17T12:59:39;14.30;1.00
816;DHT22;25928;51.062;13.752;2023-02-17T13:02:13;14.50;1.00
816;DHT22;25928;51.062;13.752;2023-02-17T13:04:41;14.50;1.00
816;DHT22;25928;51.062;13.752;2023-02-17T13:09:47;14.60;1.00
816;DHT22;25928;51.062;13.752;2023-02-17T13:14:53;14.60;1.00
816;DHT22;25928;51.062;13.752;2023-02-17T13:17:59;14.60;1.00
816;DHT22;25928;51.062;13.752;2023-02-17T13:22:43;14.80;1.00
816;DHT22;25928;51.062;13.752;2023-02-17T13:25:45;14.70;1.00
816;DHT22;25928;51.062;13.752;2023-02-17T13:28:32;14.70;1.00
816;DHT22;25928;51.062;13.752;2023-02-17T13:31:07;14.60;1.00
816;DHT22;25928;51.062;13.752;2023-02-17T13:33:40;14.50;1.00
816;DHT22;25928;51.062;13.752;2023-02-17T13:36:15;14.50;1.00
816;DHT22;25928;51.062;13.752;2023-02-17T13:39:00;14.60;1.00
816;DHT22;25928;51.062;13.752;2023-02-17T13:41:59;14.60;1.00
816;DHT22;25928;51.062;13.752;2023-02-17T13:46:52;14.80;1.00
816;DHT22;25928;51.062;13.752;2023-02-17T13:49:23;14.90;1.00
816;DHT22;25928;51.062;13.752;2023-02-17T13:51:49;14.80;1.00
816;DHT22;25928;51.062;13.752;2023-02-17T13:54:19;14.70;1.00
816;DHT22;25928;51.062;13.752;2023-02-17T13:56:50;14.60;1.00
816;DHT22;25928;51.062;13.752;2023-02-17T13:59:22;14.80;1.00
816;DHT22;25928;51.062;13.752;2023-02-17T14:01:48;14.70;1.00
816;DHT22;25928;51.062;13.752;2023-02-17T14:04:18;14.70;1.00
816;DHT22;25928;51.062;13.752;2023-02-17T14:06:45;14.80;1.00
816;DHT22;25928;51.062;13.752;2023-02-17T14:09:29;14.80;1.00
816;DHT22;25928;51.062;13.752;2023-02-17T14:11:56;14.80;1.00
816;DHT22;25928;51.062;13.752;2023-02-17T14:14:28;14.80;1.00
816;DHT22;25928;51.062;13.752;2023-02-17T14:17:06;14.90;1.00
816;DHT22;25928;51.062;13.752;2023-02-17T14:19:44;14.80;1.00
816;DHT22;25928;51.062;13.752;2023-02-17T14:22:23;14.80;1.00
816;DHT22;25928;51.062;13.752;2023-02-17T14:25:27;14.70;1.00
816;DHT22;25928;51.062;13.752;2023-02-17T14:27:53;14.80;1.00
816;DHT22;25928;51.062;13.752;2023-02-17T14:30:37;14.90;1.00
816;DHT22;25928;51.062;13.752;2023-02-17T14:35:54;14.90;1.00
816;DHT22;25928;51.062;13.752;2023-02-17T14:38:23;15.00;1.00
816;DHT22;25928;51.062;13.752;2023-02-17T14:40:49;14.90;1.00
816;DHT22;25928;51.062;13.752;2023-02-17T14:43:17;14.90;1.00
816;DHT22;25928;51.062;13.752;2023-02-17T14:45:43;14.80;1.00
816;DHT22;25928;51.062;13.752;2023-02-17T14:48:09;14.80;1.00
816;DHT22;25928;51.062;13.752;2023-02-17T14:50:35;14.80;1.00
816;DHT22;25928;51.062;13.752;2023-02-17T14:53:30;14.80;1.00
816;DHT22;25928;51.062;13.752;2023-02-17T14:56:05;14.90;1.00
816;DHT22;25928;51.062;13.752;2023-02-17T14:58:32;14.80;1.00
816;DHT22;25928;51.062;13.752;2023-02-17T15:00:58;14.90;1.00
816;DHT22;25928;51.062;13.752;2023-02-17T15:03:24;15.00;1.00
816;DHT22;25928;51.062;13.752;2023-02-17T15:05:50;15.00;1.00
816;DHT22;25928;51.062;13.752;2023-02-17T15:08:21;15.00;1.00
816;DHT22;25928;51.062;13.752;2023-02-17T15:10:49;15.00;1.00
816;DHT22;25928;51.062;13.752;2023-02-17T15:13:20;14.90;1.00
816;DHT22;25928;51.062;13.752;2023-02-17T15:15:46;14.90;1.00
816;DHT22;25928;51.062;13.752;2023-02-17T15:18:16;14.80;1.00
816;DHT22;25928;51.062;13.752;2023-02-17T15:20:44;14.80;1.00
816;DHT22;25928;51.062;13.752;2023-02-17T15:23:15;14.90;1.00
816;DHT22;25928;51.062;13.752;2023-02-17T15:25:42;14.90;1.00
816;DHT22;25928;51.062;13.752;2023-02-17T15:28:12;14.80;1.00
816;DHT22;25928;51.062;13.752;2023-02-17T15:30:37;14.80;1.00
816;DHT22;25928;51.062;13.752;2023-02-17T15:33:05;14.80;1.00
816;DHT22;25928;51.062;13.752;2023-02-17T15:35:30;14.70;1.00
816;DHT22;25928;51.062;13.752;2023-02-17T15:37:56;14.60;1.00
816;DHT22;25928;51.062;13.752;2023-02-17T15:40:24;14.60;1.00
816;DHT22;25928;51.062;13.752;2023-02-17T15:42:55;14.50;1.00
816;DHT22;25928;51.062;13.752;2023-02-17T15:45:22;14.50;1.00
816;DHT22;25928;51.062;13.752;2023-02-17T15:47:50;14.40;1.00
816;DHT22;25928;51.062;13.752;2023-02-17T15:50:25;14.40;1.00
816;DHT22;25928;51.062;13.752;2023-02-17T15:52:51;14.50;1.00
816;DHT22;25928;51.062;13.752;2023-02-17T15:55:18;14.40;1.00
816;DHT22;25928;51.062;13.752;2023-02-17T15:57:48;14.40;1.00
816;DHT22;25928;51.062;13.752;2023-02-17T16:02:44;14.30;1.00
816;DHT22;25928;51.062;13.752;2023-02-17T16:05:12;14.30;1.00
816;DHT22;25928;51.062;13.752;2023-02-17T16:07:38;14.30;1.00
816;DHT22;25928;51.062;13.752;2023-02-17T16:10:05;14.30;1.00
816;DHT22;25928;51.062;13.752;2023-02-17T16:12:31;14.20;1.00
816;DHT22;25928;51.062;13.752;2023-02-17T16:14:57;14.20;1.00
816;DHT22;25928;51.062;13.752;2023-02-17T16:17:24;14.20;1.00
816;DHT22;25928;51.062;13.752;2023-02-17T16:19:50;14.20;1.00
816;DHT22;25928;51.062;13.752;2023-02-17T16:22:15;14.10;1.00
816;DHT22;25928;51.062;13.752;2023-02-17T16:24:41;14.10;1.00
816;DHT22;25928;51.062;13.752;2023-02-17T16:27:09;14.20;1.00
816;DHT22;25928;51.062;13.752;2023-02-17T16:29:36;14.10;1.00
816;DHT22;25928;51.062;13.752;2023-02-17T16:32:02;14.10;1.00
816;DHT22;25928;51.062;13.752;2023-02-17T16:34:27;14.20;1.00
816;DHT22;25928;51.062;13.752;2023-02-17T16:36:59;14.10;1.00
816;DHT22;25928;51.062;13.752;2023-02-17T16:39:25;14.10;1.00
816;DHT22;25928;51.062;13.752;2023-02-17T16:41:51;14.20;1.00
816;DHT22;25928;51.062;13.752;2023-02-17T16:44:18;14.20;1.00
816;DHT22;25928;51.062;13.752;2023-02-17T16:46:50;14.10;1.00
816;DHT22;25928;51.062;13.752;2023-02-17T16:49:27;14.10;1.00
816;DHT22;25928;51.062;13.752;2023-02-17T16:52:06;14.10;1.00
816;DHT22;25928;51.062;13.752;2023-02-17T16:54:32;14.10;1.00
816;DHT22;25928;51.062;13.752;2023-02-17T16:56:58;14.00;1.00
816;DHT22;25928;51.062;13.752;2023-02-17T16:59:25;14.00;1.00
816;DHT22;25928;51.062;13.752;2023-02-17T17:01:51;14.00;1.00
816;DHT22;25928;51.062;13.752;2023-02-17T17:04:18;14.00;1.00
816;DHT22;25928;51.062;13.752;2023-02-17T17:06:46;14.10;1.00
816;DHT22;25928;51.062;13.752;2023-02-17T17:09:20;14.00;1.00
816;DHT22;25928;51.062;13.752;2023-02-17T17:11:46;14.00;1.00
816;DHT22;25928;51.062;13.752;2023-02-17T17:14:12;14.10;1.00
816;DHT22;25928;51.062;13.752;2023-02-17T17:16:40;14.00;1.00
816;DHT22;25928;51.062;13.752;2023-02-17T17:19:09;14.00;1.00
816;DHT22;25928;51.062;13.752;2023-02-17T17:21:35;14.20;1.00
816;DHT22;25928;51.062;13.752;2023-02-17T17:24:00;14.20;1.00
816;DHT22;25928;51.062;13.752;2023-02-17T17:26:35;14.30;1.00
816;DHT22;25928;51.062;13.752;2023-02-17T17:29:03;14.20;1.00
816;DHT22;25928;51.062;13.752;2023-02-17T17:31:29;14.30;1.00
816;DHT22;25928;51.062;13.752;2023-02-17T17:33:55;14.40;1.00
816;DHT22;25928;51.062;13.752;2023-02-17T17:36:40;14.40;1.00
816;DHT22;25928;51.062;13.752;2023-02-17T17:39:13;14.50;1.00
816;DHT22;25928;51.062;13.752;2023-02-17T17:41:38;14.40;1.00
816;DHT22;25928;51.062;13.752;2023-02-17T17:44:04;14.50;1.00
816;DHT22;25928;51.062;13.752;2023-02-17T17:46:31;14.40;1.00
816;DHT22;25928;51.062;13.752;2023-02-17T17:48:59;14.50;1.00
816;DHT22;25928;51.062;13.752;2023-02-17T17:51:28;14.50;1.00
816;DHT22;25928;51.062;13.752;2023-02-17T17:53:54;14.60;1.00
816;DHT22;25928;51.062;13.752;2023-02-17T17:56:26;14.70;1.00
816;DHT22;25928;51.062;13.752;2023-02-17T17:58:52;14.60;1.00
816;DHT22;25928;51.062;13.752;2023-02-17T18:01:19;14.60;1.00
816;DHT22;25928;51.062;13.752;2023-02-17T18:03:46;14.70;1.00